sensor_id;sensor_type;location;lat;lon;timestamp;P1;durP1;ratioP1;P2;durP2;ratioP2
6842;SDS011;3460;52.028;8.916;2023-03-22T00:00:43;8.60;;;4.57;;
6842;SDS011;3460;52.028;8.916;2023-03-22T00:03:11;6.20;;;4.23;;
6842;SDS011;3460;52.028;8.916;2023-03-22T00:05:37;5.70;;;4.17;;
6842;SDS011;3460;52.028;8.916;2023-03-22T00:08:06;6.20;;;4.00;;
6842;SDS011;3460;52.028;8.916;2023-03-22T00:10:34;6.27;;;3.93;;
6842;SDS011;3460;52.028;8.916;2023-03-22T00:13:03;5.40;;;4.23;;
6842;SDS011;3460;52.028;8.916;2023-03-22T00:15:30;7.53;;;4.17;;
6842;SDS011;3460;52.028;8.916;2023-03-22T00:17:57;5.80;;;4.37;;
6842;SDS011;3460;52.028;8.916;2023-03-22T00:20:24;7.63;;;4.40;;
6842;SDS011;3460;52.028;8.916;2023-03-22T00:22:54;6.53;;;4.20;;
6842;SDS011;3460;52.028;8.916;2023-03-22T00:25:22;7.67;;;4.40;;
6842;SDS011;3460;52.028;8.916;2023-03-22T00:27:49;7.40;;;4.50;;
6842;SDS011;3460;52.028;8.916;2023-03-22T00:30:16;7.87;;;4.70;;
6842;SDS011;3460;52.028;8.916;2023-03-22T00:32:43;8.27;;;4.73;;
6842;SDS011;3460;52.028;8.916;2023-03-22T00:35:10;7.20;;;5.07;;
6842;SDS011;3460;52.028;8.916;2023-03-22T00:37:37;7.57;;;4.83;;
6842;SDS011;3460;52.028;8.916;2023-03-22T00:40:04;9.63;;;4.80;;
6842;SDS011;3460;52.028;8.916;2023-03-22T00:42:35;7.60;;;5.20;;
6842;SDS011;3460;52.028;8.916;2023-03-22T00:45:02;8.73;;;5.30;;
6842;SDS011;3460;52.028;8.916;2023-03-22T00:47:30;13.13;;;5.40;;
6842;SDS011;3460;52.028;8.916;2023-03-22T00:49:57;6.63;;;5.20;;
6842;SDS011;3460;52.028;8.916;2023-03-22T00:52:25;7.07;;;5.87;;
6842;SDS011;3460;52.028;8.916;2023-03-22T00:54:52;10.73;;;6.10;;
6842;SDS011;3460;52.028;8.916;2023-03-22T00:57:20;8.10;;;5.83;;
6842;SDS011;3460;52.028;8.916;2023-03-22T00:59:48;8.00;;;5.80;;
6842;SDS011;3460;52.028;8.916;2023-03-22T01:02:16;7.20;;;5.97;;
6842;SDS011;3460;52.028;8.916;2023-03-22T01:04:43;7.87;;;6.13;;
6842;SDS011;3460;52.028;8.916;2023-03-22T01:07:12;7.83;;;6.13;;
6842;SDS011;3460;52.028;8.916;2023-03-22T01:09:41;9.43;;;6.33;;
6842;SDS011;3460;52.028;8.916;2023-03-22T01:12:09;7.47;;;6.07;;
6842;SDS011;3460;52.028;8.916;2023-03-22T01:14:37;6.77;;;5.40;;
6842;SDS011;3460;52.028;8.916;2023-03-22T01:17:05;8.63;;;5.90;;
6842;SDS011;3460;52.028;8.916;2023-03-22T01:19:32;8.47;;;5.00;;
6842;SDS011;3460;52.028;8.916;2023-03-22T01:22:00;7.13;;;4.70;;
6842;SDS011;3460;52.028;8.916;2023-03-22T01:24:27;8.50;;;5.00;;
6842;SDS011;3460;52.028;8.916;2023-03-22T01:26:54;6.30;;;4.33;;
6842;SDS011;3460;52.028;8.916;2023-03-22T01:29:22;8.07;;;4.73;;
6842;SDS011;3460;52.028;8.916;2023-03-22T01:31:49;8.03;;;4.70;;
6842;SDS011;3460;52.028;8.916;2023-03-22T01:34:17;7.73;;;5.07;;
6842;SDS011;3460;52.028;8.916;2023-03-22T01:36:44;7.37;;;5.00;;
6842;SDS011;3460;52.028;8.916;2023-03-22T01:39:11;7.67;;;4.70;;
6842;SDS011;3460;52.028;8.916;2023-03-22T01:41:39;7.37;;;4.83;;
6842;SDS011;3460;52.028;8.916;2023-03-22T01:44:07;7.93;;;4.93;;
6842;SDS011;3460;52.028;8.916;2023-03-22T01:46:36;6.40;;;4.33;;
6842;SDS011;3460;52.028;8.916;2023-03-22T01:49:03;6.30;;;4.47;;
6842;SDS011;3460;52.028;8.916;2023-03-22T01:51:32;7.60;;;4.67;;
6842;SDS011;3460;52.028;8.916;2023-03-22T01:54:00;7.47;;;4.60;;
6842;SDS011;3460;52.028;8.916;2023-03-22T01:56:31;8.10;;;4.40;;
6842;SDS011;3460;52.028;8.916;2023-03-22T01:59:01;7.20;;;4.63;;
6842;SDS011;3460;52.028;8.916;2023-03-22T02:01:28;7.00;;;4.80;;
6842;SDS011;3460;52.028;8.916;2023-03-22T02:03:57;8.97;;;5.00;;
6842;SDS011;3460;52.028;8.916;2023-03-22T02:06:27;8.13;;;5.40;;
6842;SDS011;3460;52.028;8.916;2023-03-22T02:08:57;7.23;;;4.80;;
6842;SDS011;3460;52.028;8.916;2023-03-22T02:11:27;6.93;;;4.73;;
6842;SDS011;3460;52.028;8.916;2023-03-22T02:16:57;8.03;;;5.17;;
6842;SDS011;3460;52.028;8.916;2023-03-22T02:25:49;6.77;;;4.23;;
6842;SDS011;3460;52.028;8.916;2023-03-22T02:28:40;7.30;;;4.80;;
6842;SDS011;3460;52.028;8.916;2023-03-22T02:31:21;7.60;;;5.10;;
6842;SDS011;3460;52.028;8.916;2023-03-22T02:37:02;9.30;;;4.50;;
6842;SDS011;3460;52.028;8.916;2023-03-22T02:39:49;8.63;;;4.80;;
6842;SDS011;3460;52.028;8.916;2023-03-22T02:42:30;6.93;;;4.87;;
6842;SDS011;3460;52.028;8.916;2023-03-22T02:45:09;9.03;;;5.33;;
6842;SDS011;3460;52.028;8.916;2023-03-22T02:47:41;8.10;;;5.33;;
6842;SDS011;3460;52.028;8.916;2023-03-22T02:50:20;6.23;;;4.70;;
6842;SDS011;3460;52.028;8.916;2023-03-22T02:52:51;6.37;;;4.63;;
6842;SDS011;3460;52.028;8.916;2023-03-22T02:55:24;6.00;;;4.50;;
6842;SDS011;3460;52.028;8.916;2023-03-22T02:57:55;7.37;;;4.93;;
6842;SDS011;3460;52.028;8.916;2023-03-22T03:00:27;6.80;;;4.73;;
6842;SDS011;3460;52.028;8.916;2023-03-22T03:02:56;8.13;;;5.50;;
6842;SDS011;3460;52.028;8.916;2023-03-22T03:05:26;8.03;;;5.33;;
6842;SDS011;3460;52.028;8.916;2023-03-22T03:07:58;8.30;;;5.33;;
6842;SDS011;3460;52.028;8.916;2023-03-22T03:10:28;6.83;;;4.70;;
6842;SDS011;3460;52.028;8.916;2023-03-22T03:12:56;7.30;;;4.80;;
6842;SDS011;3460;52.028;8.916;2023-03-22T03:15:24;6.93;;;4.70;;
6842;SDS011;3460;52.028;8.916;2023-03-22T03:17:53;7.03;;;4.90;;
6842;SDS011;3460;52.028;8.916;2023-03-22T03:20:31;9.47;;;5.10;;
6842;SDS011;3460;52.028;8.916;2023-03-22T03:23:13;8.47;;;4.80;;
6842;SDS011;3460;52.028;8.916;2023-03-22T03:25:52;7.63;;;5.17;;
6842;SDS011;3460;52.028;8.916;2023-03-22T03:28:28;11.07;;;5.20;;
6842;SDS011;3460;52.028;8.916;2023-03-22T03:31:05;7.10;;;5.10;;
6842;SDS011;3460;52.028;8.916;2023-03-22T03:33:38;6.33;;;4.90;;
6842;SDS011;3460;52.028;8.916;2023-03-22T03:36:11;6.67;;;5.43;;
6842;SDS011;3460;52.028;8.916;2023-03-22T03:38:45;9.10;;;5.67;;
6842;SDS011;3460;52.028;8.916;2023-03-22T03:41:18;9.90;;;5.00;;
6842;SDS011;3460;52.028;8.916;2023-03-22T03:43:47;8.97;;;5.17;;
6842;SDS011;3460;52.028;8.916;2023-03-22T03:46:15;7.77;;;5.23;;
6842;SDS011;3460;52.028;8.916;2023-03-22T03:48:43;7.17;;;4.90;;
6842;SDS011;3460;52.028;8.916;2023-03-22T03:51:13;10.67;;;5.63;;
6842;SDS011;3460;52.028;8.916;2023-03-22T03:53:40;9.63;;;5.47;;
6842;SDS011;3460;52.028;8.916;2023-03-22T03:56:07;8.30;;;5.20;;
6842;SDS011;3460;52.028;8.916;2023-03-22T03:58:36;8.73;;;5.50;;
6842;SDS011;3460;52.028;8.916;2023-03-22T04:01:02;7.00;;;5.03;;
6842;SDS011;3460;52.028;8.916;2023-03-22T04:03:30;7.53;;;5.03;;
6842;SDS011;3460;52.028;8.916;2023-03-22T04:05:57;7.80;;;5.73;;
6842;SDS011;3460;52.028;8.916;2023-03-22T04:08:25;7.73;;;4.77;;
6842;SDS011;3460;52.028;8.916;2023-03-22T04:10:52;8.13;;;5.77;;
6842;SDS011;3460;52.028;8.916;2023-03-22T04:13:19;9.70;;;5.47;;
6842;SDS011;3460;52.028;8.916;2023-03-22T04:15:52;12.80;;;5.97;;
6842;SDS011;3460;52.028;8.916;2023-03-22T04:18:21;9.27;;;5.67;;
6842;SDS011;3460;52.028;8.916;2023-03-22T04:20:48;11.47;;;5.97;;
6842;SDS011;3460;52.028;8.916;2023-03-22T04:23:17;8.27;;;6.13;;
6842;SDS011;3460;52.028;8.916;2023-03-22T04:25:46;9.47;;;5.53;;
6842;SDS011;3460;52.028;8.916;2023-03-22T04:28:14;11.30;;;5.57;;
6842;SDS011;3460;52.028;8.916;2023-03-22T04:30:43;9.40;;;6.00;;
6842;SDS011;3460;52.028;8.916;2023-03-22T04:33:16;8.10;;;5.83;;
6842;SDS011;3460;52.028;8.916;2023-03-22T04:35:43;8.97;;;6.10;;
6842;SDS011;3460;52.028;8.916;2023-03-22T04:38:11;9.93;;;5.93;;
6842;SDS011;3460;52.028;8.916;2023-03-22T04:40:38;11.13;;;6.63;;
6842;SDS011;3460;52.028;8.916;2023-03-22T04:43:11;8.20;;;5.73;;
6842;SDS011;3460;52.028;8.916;2023-03-22T04:45:39;6.20;;;5.47;;
6842;SDS011;3460;52.028;8.916;2023-03-22T04:48:07;10.27;;;6.90;;
6842;SDS011;3460;52.028;8.916;2023-03-22T04:50:37;9.87;;;6.17;;
6842;SDS011;3460;52.028;8.916;2023-03-22T04:53:04;9.03;;;5.70;;
6842;SDS011;3460;52.028;8.916;2023-03-22T04:55:32;10.50;;;6.40;;
6842;SDS011;3460;52.028;8.916;2023-03-22T04:57:59;8.43;;;6.13;;
6842;SDS011;3460;52.028;8.916;2023-03-22T05:00:26;14.10;;;6.27;;
6842;SDS011;3460;52.028;8.916;2023-03-22T05:02:54;9.20;;;6.20;;
6842;SDS011;3460;52.028;8.916;2023-03-22T05:05:21;10.10;;;6.07;;
6842;SDS011;3460;52.028;8.916;2023-03-22T05:07:49;9.17;;;5.90;;
6842;SDS011;3460;52.028;8.916;2023-03-22T05:10:16;9.17;;;5.93;;
6842;SDS011;3460;52.028;8.916;2023-03-22T05:12:43;7.33;;;5.33;;
6842;SDS011;3460;52.028;8.916;2023-03-22T05:15:10;9.97;;;5.63;;
6842;SDS011;3460;52.028;8.916;2023-03-22T05:17:37;7.37;;;5.33;;
6842;SDS011;3460;52.028;8.916;2023-03-22T05:20:04;7.20;;;5.40;;
6842;SDS011;3460;52.028;8.916;2023-03-22T05:22:34;8.07;;;6.00;;
6842;SDS011;3460;52.028;8.916;2023-03-22T05:25:06;9.83;;;5.90;;
6842;SDS011;3460;52.028;8.916;2023-03-22T05:27:35;9.00;;;5.83;;
6842;SDS011;3460;52.028;8.916;2023-03-22T05:30:03;11.50;;;5.67;;
6842;SDS011;3460;52.028;8.916;2023-03-22T05:32:31;7.63;;;5.13;;
6842;SDS011;3460;52.028;8.916;2023-03-22T05:34:58;8.77;;;5.87;;
6842;SDS011;3460;52.028;8.916;2023-03-22T05:37:27;7.20;;;5.40;;
6842;SDS011;3460;52.028;8.916;2023-03-22T05:39:54;7.93;;;5.73;;
6842;SDS011;3460;52.028;8.916;2023-03-22T05:42:22;9.77;;;5.70;;
6842;SDS011;3460;52.028;8.916;2023-03-22T05:44:49;9.10;;;5.93;;
6842;SDS011;3460;52.028;8.916;2023-03-22T05:47:16;7.90;;;5.83;;
6842;SDS011;3460;52.028;8.916;2023-03-22T05:49:43;9.30;;;5.70;;
6842;SDS011;3460;52.028;8.916;2023-03-22T05:52:10;11.63;;;5.83;;
6842;SDS011;3460;52.028;8.916;2023-03-22T05:54:37;9.70;;;5.70;;
6842;SDS011;3460;52.028;8.916;2023-03-22T05:57:04;9.93;;;5.63;;
6842;SDS011;3460;52.028;8.916;2023-03-22T05:59:32;8.20;;;5.57;;
6842;SDS011;3460;52.028;8.916;2023-03-22T06:01:59;8.80;;;5.83;;
6842;SDS011;3460;52.028;8.916;2023-03-22T06:04:26;8.90;;;5.43;;
6842;SDS011;3460;52.028;8.916;2023-03-22T06:06:54;9.27;;;5.47;;
6842;SDS011;3460;52.028;8.916;2023-03-22T06:09:21;8.43;;;5.20;;
6842;SDS011;3460;52.028;8.916;2023-03-22T06:11:48;10.27;;;5.97;;
6842;SDS011;3460;52.028;8.916;2023-03-22T06:14:15;12.27;;;6.07;;
6842;SDS011;3460;52.028;8.916;2023-03-22T06:16:43;8.50;;;5.90;;
6842;SDS011;3460;52.028;8.916;2023-03-22T06:19:10;8.77;;;4.80;;
6842;SDS011;3460;52.028;8.916;2023-03-22T06:21:37;7.47;;;5.00;;
6842;SDS011;3460;52.028;8.916;2023-03-22T06:24:04;8.47;;;4.70;;
6842;SDS011;3460;52.028;8.916;2023-03-22T06:26:31;7.40;;;4.53;;
6842;SDS011;3460;52.028;8.916;2023-03-22T06:28:57;8.53;;;4.77;;
6842;SDS011;3460;52.028;8.916;2023-03-22T06:31:27;8.60;;;4.67;;
6842;SDS011;3460;52.028;8.916;2023-03-22T06:33:55;6.90;;;4.30;;
6842;SDS011;3460;52.028;8.916;2023-03-22T06:36:22;7.60;;;5.00;;
6842;SDS011;3460;52.028;8.916;2023-03-22T06:38:49;9.57;;;5.93;;
6842;SDS011;3460;52.028;8.916;2023-03-22T06:41:15;8.07;;;4.13;;
6842;SDS011;3460;52.028;8.916;2023-03-22T06:43:42;7.17;;;4.30;;
6842;SDS011;3460;52.028;8.916;2023-03-22T06:46:09;10.50;;;4.83;;
6842;SDS011;3460;52.028;8.916;2023-03-22T06:48:36;9.43;;;4.73;;
6842;SDS011;3460;52.028;8.916;2023-03-22T06:51:04;10.07;;;4.57;;
6842;SDS011;3460;52.028;8.916;2023-03-22T06:53:31;9.30;;;3.90;;
6842;SDS011;3460;52.028;8.916;2023-03-22T06:55:58;6.87;;;3.53;;
6842;SDS011;3460;52.028;8.916;2023-03-22T06:58:25;10.23;;;4.03;;
6842;SDS011;3460;52.028;8.916;2023-03-22T07:00:53;9.63;;;4.40;;
6842;SDS011;3460;52.028;8.916;2023-03-22T07:03:21;6.07;;;3.87;;
6842;SDS011;3460;52.028;8.916;2023-03-22T07:05:48;8.23;;;4.20;;
6842;SDS011;3460;52.028;8.916;2023-03-22T07:08:16;6.00;;;3.97;;
6842;SDS011;3460;52.028;8.916;2023-03-22T07:10:42;4.00;;;3.30;;
6842;SDS011;3460;52.028;8.916;2023-03-22T07:13:14;9.87;;;4.37;;
6842;SDS011;3460;52.028;8.916;2023-03-22T07:15:41;6.03;;;3.37;;
6842;SDS011;3460;52.028;8.916;2023-03-22T07:18:08;8.60;;;3.53;;
6842;SDS011;3460;52.028;8.916;2023-03-22T07:20:35;12.00;;;4.27;;
6842;SDS011;3460;52.028;8.916;2023-03-22T07:23:04;8.70;;;4.10;;
6842;SDS011;3460;52.028;8.916;2023-03-22T07:25:32;7.93;;;4.00;;
6842;SDS011;3460;52.028;8.916;2023-03-22T07:27:59;7.27;;;3.50;;
6842;SDS011;3460;52.028;8.916;2023-03-22T07:30:26;7.27;;;2.90;;
6842;SDS011;3460;52.028;8.916;2023-03-22T07:32:53;8.07;;;3.70;;
6842;SDS011;3460;52.028;8.916;2023-03-22T07:35:20;6.33;;;3.60;;
6842;SDS011;3460;52.028;8.916;2023-03-22T07:37:47;7.40;;;3.23;;
6842;SDS011;3460;52.028;8.916;2023-03-22T07:40:14;7.23;;;2.83;;
6842;SDS011;3460;52.028;8.916;2023-03-22T07:42:42;8.10;;;4.07;;
6842;SDS011;3460;52.028;8.916;2023-03-22T07:45:09;4.77;;;2.97;;
6842;SDS011;3460;52.028;8.916;2023-03-22T07:47:36;9.27;;;3.50;;
6842;SDS011;3460;52.028;8.916;2023-03-22T07:50:03;9.90;;;3.33;;
6842;SDS011;3460;52.028;8.916;2023-03-22T07:52:31;10.60;;;3.03;;
6842;SDS011;3460;52.028;8.916;2023-03-22T07:54:57;6.93;;;3.60;;
6842;SDS011;3460;52.028;8.916;2023-03-22T07:57:24;8.60;;;3.23;;
6842;SDS011;3460;52.028;8.916;2023-03-22T07:59:52;5.03;;;3.33;;
6842;SDS011;3460;52.028;8.916;2023-03-22T08:02:20;6.00;;;3.60;;
6842;SDS011;3460;52.028;8.916;2023-03-22T08:04:47;7.07;;;3.53;;
6842;SDS011;3460;52.028;8.916;2023-03-22T08:07:14;6.33;;;2.90;;
6842;SDS011;3460;52.028;8.916;2023-03-22T08:09:42;6.90;;;3.47;;
6842;SDS011;3460;52.028;8.916;2023-03-22T08:12:09;6.97;;;3.63;;
6842;SDS011;3460;52.028;8.916;2023-03-22T08:14:36;5.93;;;3.30;;
6842;SDS011;3460;52.028;8.916;2023-03-22T08:17:05;5.87;;;3.10;;
6842;SDS011;3460;52.028;8.916;2023-03-22T08:19:32;6.90;;;3.20;;
6842;SDS011;3460;52.028;8.916;2023-03-22T08:21:59;5.53;;;2.83;;
6842;SDS011;3460;52.028;8.916;2023-03-22T08:24:26;9.37;;;3.10;;
6842;SDS011;3460;52.028;8.916;2023-03-22T08:26:53;7.53;;;2.90;;
6842;SDS011;3460;52.028;8.916;2023-03-22T08:29:20;6.60;;;3.00;;
6842;SDS011;3460;52.028;8.916;2023-03-22T08:31:47;5.13;;;2.60;;
6842;SDS011;3460;52.028;8.916;2023-03-22T08:34:16;6.73;;;2.80;;
6842;SDS011;3460;52.028;8.916;2023-03-22T08:36:43;6.40;;;2.93;;
6842;SDS011;3460;52.028;8.916;2023-03-22T08:39:10;6.17;;;2.67;;
6842;SDS011;3460;52.028;8.916;2023-03-22T08:41:37;5.60;;;2.90;;
6842;SDS011;3460;52.028;8.916;2023-03-22T08:44:04;6.67;;;2.80;;
6842;SDS011;3460;52.028;8.916;2023-03-22T08:46:31;5.67;;;2.40;;
6842;SDS011;3460;52.028;8.916;2023-03-22T08:48:58;5.93;;;2.60;;
6842;SDS011;3460;52.028;8.916;2023-03-22T08:51:28;6.93;;;2.77;;
6842;SDS011;3460;52.028;8.916;2023-03-22T08:53:56;6.23;;;2.50;;
6842;SDS011;3460;52.028;8.916;2023-03-22T08:56:24;8.77;;;2.57;;
6842;SDS011;3460;52.028;8.916;2023-03-22T08:58:52;5.00;;;2.77;;
6842;SDS011;3460;52.028;8.916;2023-03-22T09:01:19;4.87;;;2.53;;
6842;SDS011;3460;52.028;8.916;2023-03-22T09:03:46;5.67;;;2.50;;
6842;SDS011;3460;52.028;8.916;2023-03-22T09:06:13;4.23;;;2.53;;
6842;SDS011;3460;52.028;8.916;2023-03-22T09:08:41;8.60;;;2.60;;
6842;SDS011;3460;52.028;8.916;2023-03-22T09:11:08;4.53;;;2.50;;
6842;SDS011;3460;52.028;8.916;2023-03-22T09:13:36;7.43;;;2.50;;
6842;SDS011;3460;52.028;8.916;2023-03-22T09:16:03;8.47;;;2.87;;
6842;SDS011;3460;52.028;8.916;2023-03-22T09:18:32;7.27;;;2.53;;
6842;SDS011;3460;52.028;8.916;2023-03-22T09:20:59;5.20;;;2.53;;
6842;SDS011;3460;52.028;8.916;2023-03-22T09:23:26;6.63;;;2.30;;
6842;SDS011;3460;52.028;8.916;2023-03-22T09:25:55;5.27;;;2.40;;
6842;SDS011;3460;52.028;8.916;2023-03-22T09:28:25;3.60;;;2.17;;
6842;SDS011;3460;52.028;8.916;2023-03-22T09:30:52;5.33;;;2.00;;
6842;SDS011;3460;52.028;8.916;2023-03-22T09:33:19;5.73;;;2.70;;
6842;SDS011;3460;52.028;8.916;2023-03-22T09:35:46;9.43;;;2.60;;
6842;SDS011;3460;52.028;8.916;2023-03-22T09:38:13;2.63;;;2.20;;
6842;SDS011;3460;52.028;8.916;2023-03-22T09:40:42;5.90;;;2.27;;
6842;SDS011;3460;52.028;8.916;2023-03-22T09:43:17;7.67;;;2.43;;
6842;SDS011;3460;52.028;8.916;2023-03-22T09:45:45;7.97;;;2.30;;
6842;SDS011;3460;52.028;8.916;2023-03-22T09:48:15;4.33;;;2.00;;
6842;SDS011;3460;52.028;8.916;2023-03-22T09:50:46;5.07;;;2.43;;
6842;SDS011;3460;52.028;8.916;2023-03-22T09:53:16;5.00;;;2.10;;
6842;SDS011;3460;52.028;8.916;2023-03-22T09:55:45;5.53;;;2.17;;
6842;SDS011;3460;52.028;8.916;2023-03-22T09:58:21;3.47;;;1.90;;
6842;SDS011;3460;52.028;8.916;2023-03-22T10:00:51;7.97;;;2.43;;
6842;SDS011;3460;52.028;8.916;2023-03-22T10:03:26;5.77;;;2.33;;
6842;SDS011;3460;52.028;8.916;2023-03-22T10:06:16;9.17;;;2.47;;
6842;SDS011;3460;52.028;8.916;2023-03-22T10:08:46;9.93;;;2.40;;
6842;SDS011;3460;52.028;8.916;2023-03-22T10:11:23;3.10;;;1.93;;
6842;SDS011;3460;52.028;8.916;2023-03-22T10:14:00;5.13;;;1.80;;
6842;SDS011;3460;52.028;8.916;2023-03-22T10:16:33;4.50;;;2.17;;
6842;SDS011;3460;52.028;8.916;2023-03-22T10:19:02;5.43;;;2.40;;
6842;SDS011;3460;52.028;8.916;2023-03-22T10:21:33;4.23;;;2.10;;
6842;SDS011;3460;52.028;8.916;2023-03-22T10:24:02;5.50;;;2.30;;
6842;SDS011;3460;52.028;8.916;2023-03-22T10:26:33;5.80;;;2.00;;
6842;SDS011;3460;52.028;8.916;2023-03-22T10:29:08;6.47;;;2.10;;
6842;SDS011;3460;52.028;8.916;2023-03-22T10:31:38;4.47;;;2.10;;
6842;SDS011;3460;52.028;8.916;2023-03-22T10:34:12;2.93;;;1.87;;
6842;SDS011;3460;52.028;8.916;2023-03-22T10:36:45;3.70;;;1.70;;
6842;SDS011;3460;52.028;8.916;2023-03-22T10:39:18;4.67;;;2.10;;
6842;SDS011;3460;52.028;8.916;2023-03-22T10:41:52;4.30;;;2.10;;
6842;SDS011;3460;52.028;8.916;2023-03-22T10:44:21;4.10;;;1.83;;
6842;SDS011;3460;52.028;8.916;2023-03-22T10:46:51;7.30;;;2.10;;
6842;SDS011;3460;52.028;8.916;2023-03-22T10:49:21;3.93;;;1.73;;
6842;SDS011;3460;52.028;8.916;2023-03-22T10:51:53;3.97;;;2.00;;
6842;SDS011;3460;52.028;8.916;2023-03-22T10:54:23;7.73;;;2.20;;
6842;SDS011;3460;52.028;8.916;2023-03-22T10:56:51;4.83;;;2.27;;
6842;SDS011;3460;52.028;8.916;2023-03-22T11:02:15;4.43;;;2.03;;
6842;SDS011;3460;52.028;8.916;2023-03-22T11:04:48;5.30;;;2.40;;
6842;SDS011;3460;52.028;8.916;2023-03-22T11:07:25;3.77;;;2.10;;
6842;SDS011;3460;52.028;8.916;2023-03-22T11:09:58;7.00;;;1.97;;
6842;SDS011;3460;52.028;8.916;2023-03-22T11:12:37;6.37;;;2.30;;
6842;SDS011;3460;52.028;8.916;2023-03-22T11:15:10;5.20;;;2.00;;
6842;SDS011;3460;52.028;8.916;2023-03-22T11:17:46;3.07;;;2.00;;
6842;SDS011;3460;52.028;8.916;2023-03-22T11:20:14;5.37;;;2.23;;
6842;SDS011;3460;52.028;8.916;2023-03-22T11:22:43;5.83;;;2.27;;
6842;SDS011;3460;52.028;8.916;2023-03-22T11:25:12;4.77;;;1.93;;
6842;SDS011;3460;52.028;8.916;2023-03-22T11:27:48;5.13;;;2.30;;
6842;SDS011;3460;52.028;8.916;2023-03-22T11:30:19;5.77;;;2.30;;
6842;SDS011;3460;52.028;8.916;2023-03-22T11:32:47;4.83;;;1.77;;
6842;SDS011;3460;52.028;8.916;2023-03-22T11:35:15;4.57;;;1.80;;
6842;SDS011;3460;52.028;8.916;2023-03-22T11:37:46;7.47;;;2.20;;
6842;SDS011;3460;52.028;8.916;2023-03-22T11:40:16;6.43;;;2.10;;
6842;SDS011;3460;52.028;8.916;2023-03-22T11:42:44;7.00;;;2.10;;
6842;SDS011;3460;52.028;8.916;2023-03-22T11:45:13;3.83;;;1.90;;
6842;SDS011;3460;52.028;8.916;2023-03-22T11:47:42;6.03;;;2.10;;
6842;SDS011;3460;52.028;8.916;2023-03-22T11:50:20;6.50;;;2.20;;
6842;SDS011;3460;52.028;8.916;2023-03-22T11:52:52;4.50;;;2.10;;
6842;SDS011;3460;52.028;8.916;2023-03-22T11:55:20;4.67;;;1.90;;
6842;SDS011;3460;52.028;8.916;2023-03-22T11:57:48;6.20;;;2.13;;
6842;SDS011;3460;52.028;8.916;2023-03-22T12:00:17;5.37;;;1.90;;
6842;SDS011;3460;52.028;8.916;2023-03-22T12:02:49;4.87;;;2.20;;
6842;SDS011;3460;52.028;8.916;2023-03-22T12:05:19;3.40;;;2.00;;
6842;SDS011;3460;52.028;8.916;2023-03-22T12:07:50;2.83;;;1.83;;
6842;SDS011;3460;52.028;8.916;2023-03-22T12:10:22;5.73;;;2.40;;
6842;SDS011;3460;52.028;8.916;2023-03-22T12:12:56;4.27;;;1.70;;
6842;SDS011;3460;52.028;8.916;2023-03-22T12:15:25;4.30;;;1.77;;
6842;SDS011;3460;52.028;8.916;2023-03-22T12:17:57;4.17;;;2.30;;
6842;SDS011;3460;52.028;8.916;2023-03-22T12:20:32;8.13;;;2.10;;
6842;SDS011;3460;52.028;8.916;2023-03-22T12:23:08;5.40;;;2.13;;
6842;SDS011;3460;52.028;8.916;2023-03-22T12:25:39;3.97;;;1.63;;
6842;SDS011;3460;52.028;8.916;2023-03-22T12:28:12;4.00;;;1.80;;
6842;SDS011;3460;52.028;8.916;2023-03-22T12:30:43;6.27;;;2.47;;
6842;SDS011;3460;52.028;8.916;2023-03-22T12:33:15;4.03;;;1.70;;
6842;SDS011;3460;52.028;8.916;2023-03-22T12:35:46;6.60;;;1.90;;
6842;SDS011;3460;52.028;8.916;2023-03-22T12:38:19;4.07;;;1.80;;
6842;SDS011;3460;52.028;8.916;2023-03-22T12:40:52;5.83;;;2.20;;
6842;SDS011;3460;52.028;8.916;2023-03-22T12:43:23;5.07;;;2.00;;
6842;SDS011;3460;52.028;8.916;2023-03-22T12:46:02;4.10;;;1.80;;
6842;SDS011;3460;52.028;8.916;2023-03-22T12:48:32;4.57;;;2.00;;
6842;SDS011;3460;52.028;8.916;2023-03-22T12:51:04;3.43;;;1.80;;
6842;SDS011;3460;52.028;8.916;2023-03-22T12:53:33;5.20;;;2.10;;
6842;SDS011;3460;52.028;8.916;2023-03-22T12:56:06;3.27;;;1.80;;
6842;SDS011;3460;52.028;8.916;2023-03-22T12:58:35;4.00;;;1.70;;
6842;SDS011;3460;52.028;8.916;2023-03-22T13:01:07;4.20;;;1.60;;
6842;SDS011;3460;52.028;8.916;2023-03-22T13:03:46;3.83;;;1.67;;
6842;SDS011;3460;52.028;8.916;2023-03-22T13:06:29;6.13;;;2.07;;
6842;SDS011;3460;52.028;8.916;2023-03-22T13:09:04;8.10;;;1.70;;
6842;SDS011;3460;52.028;8.916;2023-03-22T13:11:40;3.77;;;1.80;;
6842;SDS011;3460;52.028;8.916;2023-03-22T13:14:10;4.17;;;1.50;;
6842;SDS011;3460;52.028;8.916;2023-03-22T13:16:53;5.07;;;1.70;;
6842;SDS011;3460;52.028;8.916;2023-03-22T13:19:29;6.17;;;1.67;;
6842;SDS011;3460;52.028;8.916;2023-03-22T13:22:21;5.43;;;1.87;;
6842;SDS011;3460;52.028;8.916;2023-03-22T13:25:10;18.10;;;10.60;;
6842;SDS011;3460;52.028;8.916;2023-03-22T13:27:48;2.43;;;1.17;;
6842;SDS011;3460;52.028;8.916;2023-03-22T13:30:22;5.13;;;1.47;;
6842;SDS011;3460;52.028;8.916;2023-03-22T13:32:51;3.53;;;1.33;;
6842;SDS011;3460;52.028;8.916;2023-03-22T13:35:22;2.07;;;1.17;;
6842;SDS011;3460;52.028;8.916;2023-03-22T13:37:52;3.83;;;1.40;;
6842;SDS011;3460;52.028;8.916;2023-03-22T13:40:28;3.67;;;1.40;;
6842;SDS011;3460;52.028;8.916;2023-03-22T13:43:20;3.00;;;1.63;;
6842;SDS011;3460;52.028;8.916;2023-03-22T13:46:00;3.47;;;1.57;;
6842;SDS011;3460;52.028;8.916;2023-03-22T13:48:39;2.23;;;1.50;;
6842;SDS011;3460;52.028;8.916;2023-03-22T13:51:12;3.10;;;1.70;;
6842;SDS011;3460;52.028;8.916;2023-03-22T13:53:45;4.10;;;1.77;;
6842;SDS011;3460;52.028;8.916;2023-03-22T13:56:27;3.57;;;1.53;;
6842;SDS011;3460;52.028;8.916;2023-03-22T13:58:59;3.17;;;1.60;;
6842;SDS011;3460;52.028;8.916;2023-03-22T14:01:28;7.13;;;1.40;;
6842;SDS011;3460;52.028;8.916;2023-03-22T14:04:00;2.87;;;1.40;;
6842;SDS011;3460;52.028;8.916;2023-03-22T14:06:35;3.10;;;1.37;;
6842;SDS011;3460;52.028;8.916;2023-03-22T14:09:10;4.50;;;1.30;;
6842;SDS011;3460;52.028;8.916;2023-03-22T14:11:49;2.57;;;1.43;;
6842;SDS011;3460;52.028;8.916;2023-03-22T14:14:21;4.13;;;1.53;;
6842;SDS011;3460;52.028;8.916;2023-03-22T14:16:51;5.13;;;1.80;;
6842;SDS011;3460;52.028;8.916;2023-03-22T14:19:24;6.97;;;1.90;;
6842;SDS011;3460;52.028;8.916;2023-03-22T14:21:57;5.23;;;2.17;;
6842;SDS011;3460;52.028;8.916;2023-03-22T14:24:27;4.87;;;2.03;;
6842;SDS011;3460;52.028;8.916;2023-03-22T14:26:57;6.50;;;1.80;;
6842;SDS011;3460;52.028;8.916;2023-03-22T14:29:25;4.23;;;2.27;;
6842;SDS011;3460;52.028;8.916;2023-03-22T14:31:54;5.10;;;2.07;;
6842;SDS011;3460;52.028;8.916;2023-03-22T14:34:23;4.93;;;2.07;;
6842;SDS011;3460;52.028;8.916;2023-03-22T14:36:54;4.13;;;2.20;;
6842;SDS011;3460;52.028;8.916;2023-03-22T14:39:26;5.77;;;2.00;;
6842;SDS011;3460;52.028;8.916;2023-03-22T14:41:58;5.37;;;1.63;;
6842;SDS011;3460;52.028;8.916;2023-03-22T14:44:27;4.83;;;1.60;;
6842;SDS011;3460;52.028;8.916;2023-03-22T14:47:02;5.67;;;1.80;;
6842;SDS011;3460;52.028;8.916;2023-03-22T14:49:37;3.43;;;1.70;;
6842;SDS011;3460;52.028;8.916;2023-03-22T14:52:08;3.63;;;1.47;;
6842;SDS011;3460;52.028;8.916;2023-03-22T14:54:42;4.00;;;1.60;;
6842;SDS011;3460;52.028;8.916;2023-03-22T14:57:12;5.50;;;1.90;;
6842;SDS011;3460;52.028;8.916;2023-03-22T14:59:41;4.70;;;1.50;;
6842;SDS011;3460;52.028;8.916;2023-03-22T15:02:15;3.63;;;1.40;;
6842;SDS011;3460;52.028;8.916;2023-03-22T15:04:57;3.40;;;2.27;;
6842;SDS011;3460;52.028;8.916;2023-03-22T15:07:25;18.67;;;10.83;;
6842;SDS011;3460;52.028;8.916;2023-03-22T15:09:52;2.83;;;1.67;;
6842;SDS011;3460;52.028;8.916;2023-03-22T15:12:36;3.47;;;1.47;;
6842;SDS011;3460;52.028;8.916;2023-03-22T15:15:03;3.77;;;1.50;;
6842;SDS011;3460;52.028;8.916;2023-03-22T15:17:30;5.87;;;1.23;;
6842;SDS011;3460;52.028;8.916;2023-03-22T15:20:01;3.83;;;1.60;;
6842;SDS011;3460;52.028;8.916;2023-03-22T15:22:31;6.57;;;2.27;;
6842;SDS011;3460;52.028;8.916;2023-03-22T15:24:59;3.40;;;1.40;;
6842;SDS011;3460;52.028;8.916;2023-03-22T15:27:27;4.27;;;1.70;;
6842;SDS011;3460;52.028;8.916;2023-03-22T15:29:55;3.23;;;1.57;;
6842;SDS011;3460;52.028;8.916;2023-03-22T15:32:24;4.00;;;1.30;;
6842;SDS011;3460;52.028;8.916;2023-03-22T15:34:52;2.40;;;1.20;;
6842;SDS011;3460;52.028;8.916;2023-03-22T15:37:22;3.80;;;1.83;;
6842;SDS011;3460;52.028;8.916;2023-03-22T15:39:55;6.07;;;1.40;;
6842;SDS011;3460;52.028;8.916;2023-03-22T15:42:25;4.43;;;1.83;;
6842;SDS011;3460;52.028;8.916;2023-03-22T15:44:57;4.13;;;2.23;;
6842;SDS011;3460;52.028;8.916;2023-03-22T15:47:27;3.43;;;1.63;;